Darstellungsparameter: Aktuell verwendete Einstellungen:
Skalierung der Graphiken ... ?
xyx+y,   Skalierungsfaktor:      Skalierung: Modus: x, Faktor: 1
Darstellungszeitraum ... ?
Vom - - bis: - -   Zeitraum: 28.02.2016 - 28.02.2016
Min/Max/Avg-Anzeige ... ?
Zeige MMA aktuell
Zeige MMA Monat
Zeige MMA alles
Zeige --A aktuell
Zeige --A Monat
Zeige --A alles
Keine MMA-Anzeige
MMA:
Keine MMA-Graphiken
MMA-Basis: 28.02.2016 - 28.02.2016
Quicknavigation für Darstellung... ?
Tage:      1T, 2T, 3T, 5T -1T -2T -3T -5T +1T +2T +3T +5T
Wochen: 1W, 2W, 3W -1W -2W -3W +1W +2W +3W
Monate: 1M, 3M, 6M -1M -3M -6M +1M +3M +6M
Jahre:    1J, 3J, 5J, 10J -1J -3J -5J -10J +1J +3J +5J +10J
Nutze für die Darstellung ... ?
Originaldaten oder Mittelwerte auf ...
Stundenbasis Tagesbasis Wochenbasis
Monatsbasis Jahresbasis      Datenbasis: Original-Daten
Darstellen als:
Statistik (Auto) Statistik J:M      Darstellung:
Zur Graphik,    zurück zur Übersicht aller Sensoren.
 
Tabellarische Datenbersicht: ?
 
Sensor: Nr:Datum:Temp:Feuchte:Taupunkt:
Aussen-T/F 1 28-02-2016 00:00:00 0.4 C 87 % -1.5 C
2 28-02-2016 00:05:00 0.4 C 87 % -1.5 C
3 28-02-2016 00:10:00 0.4 C 87 % -1.5 C
4 28-02-2016 00:15:00 0.4 C 87 % -1.5 C
5 28-02-2016 00:20:00 0.3 C 87 % -1.6 C
6 28-02-2016 00:25:00 0.3 C 87 % -1.6 C
7 28-02-2016 00:30:00 0.2 C 87 % -1.7 C
8 28-02-2016 00:35:00 0.2 C 87 % -1.7 C
9 28-02-2016 00:40:00 0.2 C 87 % -1.7 C
10 28-02-2016 00:45:00 0.1 C 87 % -1.8 C
11 28-02-2016 00:50:00 0.1 C 87 % -1.8 C
12 28-02-2016 00:55:00 0 C 88 % -1.74 C
13 28-02-2016 01:00:00 -0.1 C 88 % -1.84 C
14 28-02-2016 01:05:00 -0.1 C 87 % -2 C
15 28-02-2016 01:10:00 -0.1 C 88 % -1.84 C
16 28-02-2016 01:15:00 -0.1 C 88 % -1.84 C
17 28-02-2016 01:20:00 -0.2 C 88 % -1.94 C
18 28-02-2016 01:25:00 -0.3 C 88 % -2.04 C
19 28-02-2016 01:30:00 -0.3 C 88 % -2.04 C
20 28-02-2016 01:35:00 -0.3 C 89 % -1.89 C
21 28-02-2016 01:40:00 -0.4 C 88 % -2.14 C
22 28-02-2016 01:45:00 -0.4 C 89 % -1.99 C
23 28-02-2016 01:50:00 -0.5 C 88 % -2.24 C
24 28-02-2016 01:55:00 -0.6 C 89 % -2.18 C
25 28-02-2016 02:00:00 -0.7 C 89 % -2.28 C
Sensor: Nr:Datum:Temp:Feuchte:Taupunkt:
Aussen-T/F 26 28-02-2016 02:05:00 -0.8 C 89 % -2.38 C
27 28-02-2016 02:10:00 -0.8 C 89 % -2.38 C
28 28-02-2016 02:15:00 -0.9 C 89 % -2.48 C
29 28-02-2016 02:20:00 -0.9 C 89 % -2.48 C
30 28-02-2016 02:25:00 -1 C 90 % -2.43 C
31 28-02-2016 02:30:00 -1 C 90 % -2.43 C
32 28-02-2016 02:35:00 -1 C 90 % -2.43 C
33 28-02-2016 02:40:00 -1 C 90 % -2.43 C
34 28-02-2016 02:45:00 -1.1 C 90 % -2.53 C
35 28-02-2016 02:50:00 -1.1 C 90 % -2.53 C
36 28-02-2016 02:55:00 -1.2 C 90 % -2.63 C
37 28-02-2016 03:00:00 -1.2 C 90 % -2.63 C
38 28-02-2016 03:05:00 -1.3 C 90 % -2.73 C
39 28-02-2016 03:10:00 -1.2 C 91 % -2.48 C
40 28-02-2016 03:15:00 -1.2 C 91 % -2.48 C
41 28-02-2016 03:20:00 -1.2 C 90 % -2.63 C
42 28-02-2016 03:25:00 -1.1 C 90 % -2.53 C
43 28-02-2016 03:30:00 -1.1 C 90 % -2.53 C
44 28-02-2016 03:35:00 -1.1 C 90 % -2.53 C
45 28-02-2016 03:40:00 -1.1 C 90 % -2.53 C
46 28-02-2016 03:45:00 -1.1 C 90 % -2.53 C
47 28-02-2016 03:50:00 -1.2 C 90 % -2.63 C
48 28-02-2016 03:55:00 -1.2 C 90 % -2.63 C
49 28-02-2016 04:00:00 -1.2 C 90 % -2.63 C
50 28-02-2016 04:05:00 -1.2 C 90 % -2.63 C
Sensor: Nr:Datum:Temp:Feuchte:Taupunkt:
Aussen-T/F 51 28-02-2016 04:10:00 -1.2 C 90 % -2.63 C
52 28-02-2016 04:15:00 -1.3 C 90 % -2.73 C
53 28-02-2016 04:20:00 -1.3 C 90 % -2.73 C
54 28-02-2016 04:25:00 -1.4 C 90 % -2.82 C
55 28-02-2016 04:30:00 -1.4 C 90 % -2.82 C
56 28-02-2016 04:35:00 -1.4 C 90 % -2.82 C
57 28-02-2016 04:40:00 -1.4 C 91 % -2.68 C
58 28-02-2016 04:45:00 -1.4 C 91 % -2.68 C
59 28-02-2016 04:50:00 -1.4 C 91 % -2.68 C
60 28-02-2016 04:55:00 -1.4 C 91 % -2.68 C
61 28-02-2016 05:00:00 -1.4 C 90 % -2.82 C
62 28-02-2016 05:05:00 -1.3 C 91 % -2.58 C
63 28-02-2016 05:10:00 -1.3 C 91 % -2.58 C
64 28-02-2016 05:15:00 -1.3 C 90 % -2.73 C
65 28-02-2016 05:20:00 -1.3 C 90 % -2.73 C
66 28-02-2016 05:25:00 -1.3 C 90 % -2.73 C
67 28-02-2016 05:30:00 -1.3 C 90 % -2.73 C
68 28-02-2016 05:35:00 -1.3 C 90 % -2.73 C
69 28-02-2016 05:40:00 -1.3 C 90 % -2.73 C
70 28-02-2016 05:45:00 -1.3 C 90 % -2.73 C
71 28-02-2016 05:50:00 -1.4 C 90 % -2.82 C
72 28-02-2016 05:55:00 -1.4 C 89 % -2.97 C
73 28-02-2016 06:00:00 -1.5 C 90 % -2.92 C
74 28-02-2016 06:05:00 -1.6 C 89 % -3.17 C
75 28-02-2016 06:10:00 -1.7 C 90 % -3.12 C
Sensor: Nr:Datum:Temp:Feuchte:Taupunkt:
Aussen-T/F 76 28-02-2016 06:15:00 -1.7 C 90 % -3.12 C
77 28-02-2016 06:20:00 -1.7 C 91 % -2.97 C
78 28-02-2016 06:25:00 -1.6 C 91 % -2.87 C
79 28-02-2016 06:30:00 -1.5 C 91 % -2.77 C
80 28-02-2016 06:35:00 -1.4 C 90 % -2.82 C
81 28-02-2016 06:40:00 -1.4 C 90 % -2.82 C
82 28-02-2016 06:45:00 -1.3 C 90 % -2.73 C
83 28-02-2016 06:50:00 -1.3 C 90 % -2.73 C
84 28-02-2016 06:55:00 -1.3 C 90 % -2.73 C
85 28-02-2016 07:00:00 -1.3 C 89 % -2.88 C
86 28-02-2016 07:05:00 -1.3 C 89 % -2.88 C
87 28-02-2016 07:10:00 -1.4 C 89 % -2.97 C
88 28-02-2016 07:15:00 -1.4 C 89 % -2.97 C
89 28-02-2016 07:20:00 -1.5 C 89 % -3.07 C
90 28-02-2016 07:25:00 -1.6 C 89 % -3.17 C
91 28-02-2016 07:30:00 -1.6 C 90 % -3.02 C
92 28-02-2016 07:35:00 -1.4 C 90 % -2.82 C
93 28-02-2016 07:40:00 -1.3 C 91 % -2.58 C
94 28-02-2016 07:45:00 -1.2 C 90 % -2.63 C
95 28-02-2016 07:50:00 -1.1 C 90 % -2.53 C
96 28-02-2016 07:55:00 -1.1 C 90 % -2.53 C
97 28-02-2016 08:00:00 -1 C 90 % -2.43 C
98 28-02-2016 08:05:00 -1 C 90 % -2.43 C
99 28-02-2016 08:10:00 -1 C 90 % -2.43 C
100 28-02-2016 08:15:00 -1 C 90 % -2.43 C
Sensor: Nr:Datum:Temp:Feuchte:Taupunkt:
Aussen-T/F 101 28-02-2016 08:20:00 -1.1 C 90 % -2.53 C
102 28-02-2016 08:25:00 -1 C 90 % -2.43 C
103 28-02-2016 08:30:00 -0.9 C 90 % -2.33 C
104 28-02-2016 08:35:00 -0.8 C 90 % -2.23 C
105 28-02-2016 08:40:00 -0.7 C 90 % -2.13 C
106 28-02-2016 08:45:00 -0.6 C 90 % -2.03 C
107 28-02-2016 08:50:00 -0.4 C 90 % -1.84 C
108 28-02-2016 08:55:00 -0.3 C 89 % -1.89 C
109 28-02-2016 09:00:00 -0.2 C 89 % -1.79 C
110 28-02-2016 09:05:00 -0.1 C 88 % -1.84 C
111 28-02-2016 09:10:00 0 C 88 % -1.74 C
112 28-02-2016 09:15:00 0.1 C 88 % -1.65 C
113 28-02-2016 09:20:00 0.2 C 86 % -1.86 C
114 28-02-2016 09:25:00 0.4 C 86 % -1.66 C
115 28-02-2016 09:30:00 0.6 C 85 % -1.62 C
116 28-02-2016 09:35:00 0.7 C 85 % -1.53 C
117 28-02-2016 09:40:00 0.8 C 84 % -1.59 C
118 28-02-2016 10:35:00 2.4 C 77 % -1.21 C
119 28-02-2016 10:55:00 2.6 C 77 % -1.02 C
120 28-02-2016 11:00:00 2.9 C 76 % -0.9 C
121 28-02-2016 11:05:00 3.2 C 75 % -0.79 C
122 28-02-2016 11:10:00 3.4 C 74 % -0.78 C
123 28-02-2016 11:15:00 3.6 C 74 % -0.59 C
124 28-02-2016 11:20:00 3.7 C 71 % -1.06 C
125 28-02-2016 11:25:00 3.8 C 71 % -0.96 C
Sensor: Nr:Datum:Temp:Feuchte:Taupunkt:
Aussen-T/F 126 28-02-2016 11:30:00 3.9 C 71 % -0.87 C
127 28-02-2016 11:35:00 4.2 C 70 % -0.77 C
128 28-02-2016 11:40:00 4.4 C 69 % -0.78 C
129 28-02-2016 11:45:00 4.6 C 69 % -0.58 C
130 28-02-2016 11:50:00 4.7 C 68 % -0.69 C
131 28-02-2016 11:55:00 4.8 C 67 % -0.8 C
132 28-02-2016 12:00:00 4.8 C 67 % -0.8 C
133 28-02-2016 12:05:00 4.9 C 67 % -0.7 C
134 28-02-2016 12:10:00 5 C 69 % -0.2 C
135 28-02-2016 12:15:00 5.1 C 67 % -0.51 C
136 28-02-2016 12:20:00 5.3 C 67 % -0.32 C
137 28-02-2016 12:25:00 5.4 C 66 % -0.43 C
138 28-02-2016 12:30:00 5.8 C 63 % -0.69 C
139 28-02-2016 12:35:00 6.1 C 60 % -1.07 C
140 28-02-2016 12:40:00 6.3 C 59 % -1.11 C
141 28-02-2016 12:45:00 6.4 C 58 % -1.25 C
142 28-02-2016 12:50:00 6.5 C 58 % -1.15 C
143 28-02-2016 12:55:00 6.6 C 57 % -1.3 C
144 28-02-2016 13:00:00 6.6 C 58 % -1.06 C
145 28-02-2016 13:05:00 6.6 C 57 % -1.3 C
146 28-02-2016 13:10:00 6.7 C 58 % -0.97 C
147 28-02-2016 13:15:00 6.6 C 58 % -1.06 C
148 28-02-2016 13:20:00 6.6 C 57 % -1.3 C
149 28-02-2016 13:25:00 6.7 C 59 % -0.73 C
150 28-02-2016 13:30:00 6.7 C 58 % -0.97 C
Sensor: Nr:Datum:Temp:Feuchte:Taupunkt:
Aussen-T/F 151 28-02-2016 13:35:00 6.8 C 58 % -0.87 C
152 28-02-2016 13:40:00 6.8 C 59 % -0.64 C
153 28-02-2016 13:45:00 6.8 C 58 % -0.87 C
154 28-02-2016 13:50:00 6.9 C 58 % -0.78 C
155 28-02-2016 13:55:00 6.9 C 57 % -1.01 C
156 28-02-2016 14:00:00 6.9 C 58 % -0.78 C
157 28-02-2016 14:05:00 6.9 C 58 % -0.78 C
158 28-02-2016 14:10:00 6.9 C 57 % -1.01 C
159 28-02-2016 14:15:00 7 C 58 % -0.68 C
160 28-02-2016 14:20:00 7 C 57 % -0.92 C
161 28-02-2016 14:25:00 7 C 57 % -0.92 C
162 28-02-2016 14:30:00 7 C 57 % -0.92 C
163 28-02-2016 14:35:00 7 C 56 % -1.16 C
164 28-02-2016 14:40:00 6.9 C 57 % -1.01 C
165 28-02-2016 14:45:00 7 C 57 % -0.92 C
166 28-02-2016 14:50:00 7.1 C 57 % -0.83 C
167 28-02-2016 14:55:00 7.1 C 58 % -0.59 C
168 28-02-2016 15:00:00 6.9 C 57 % -1.01 C
169 28-02-2016 15:05:00 6.8 C 58 % -0.87 C
170 28-02-2016 15:10:00 6.8 C 58 % -0.87 C
171 28-02-2016 15:15:00 6.7 C 58 % -0.97 C
172 28-02-2016 15:20:00 6.6 C 58 % -1.06 C
173 28-02-2016 15:25:00 6.6 C 58 % -1.06 C
174 28-02-2016 15:30:00 6.6 C 58 % -1.06 C
175 28-02-2016 15:35:00 6.5 C 58 % -1.15 C
Sensor: Nr:Datum:Temp:Feuchte:Taupunkt:
Aussen-T/F 176 28-02-2016 15:40:00 6.5 C 58 % -1.15 C
177 28-02-2016 15:45:00 6.4 C 58 % -1.25 C
178 28-02-2016 15:50:00 6.4 C 59 % -1.01 C
179 28-02-2016 15:55:00 6.3 C 59 % -1.11 C
180 28-02-2016 16:00:00 6.3 C 58 % -1.34 C
181 28-02-2016 16:05:00 6.2 C 59 % -1.2 C
182 28-02-2016 16:10:00 6.2 C 59 % -1.2 C
183 28-02-2016 16:15:00 6.2 C 59 % -1.2 C
184 28-02-2016 16:20:00 6.2 C 59 % -1.2 C
185 28-02-2016 16:25:00 6.2 C 59 % -1.2 C
186 28-02-2016 16:30:00 6.2 C 60 % -0.97 C
187 28-02-2016 16:35:00 6.2 C 59 % -1.2 C
188 28-02-2016 16:40:00 6.1 C 60 % -1.07 C
189 28-02-2016 16:45:00 6.1 C 59 % -1.3 C
190 28-02-2016 16:50:00 6.1 C 59 % -1.3 C
191 28-02-2016 16:55:00 6 C 58 % -1.62 C
192 28-02-2016 17:00:00 5.9 C 58 % -1.72 C
193 28-02-2016 17:05:00 5.9 C 58 % -1.72 C
194 28-02-2016 17:10:00 5.8 C 59 % -1.58 C
195 28-02-2016 17:15:00 5.8 C 59 % -1.58 C
196 28-02-2016 17:20:00 5.7 C 59 % -1.67 C
197 28-02-2016 17:25:00 5.7 C 59 % -1.67 C
198 28-02-2016 17:30:00 5.7 C 59 % -1.67 C
199 28-02-2016 17:35:00 5.6 C 59 % -1.77 C
200 28-02-2016 17:40:00 5.6 C 59 % -1.77 C
Sensor: Nr:Datum:Temp:Feuchte:Taupunkt:
Aussen-T/F 201 28-02-2016 17:45:00 5.5 C 60 % -1.63 C
202 28-02-2016 17:50:00 5.4 C 61 % -1.5 C
203 28-02-2016 17:55:00 5.3 C 62 % -1.38 C
204 28-02-2016 18:00:00 5.2 C 62 % -1.47 C
205 28-02-2016 18:05:00 5.1 C 65 % -0.92 C
206 28-02-2016 18:10:00 4.9 C 66 % -0.91 C
207 28-02-2016 18:15:00 4.7 C 67 % -0.89 C
208 28-02-2016 18:20:00 4.6 C 68 % -0.78 C
209 28-02-2016 18:25:00 4.3 C 70 % -0.68 C
210 28-02-2016 18:30:00 3.9 C 72 % -0.68 C
211 28-02-2016 18:35:00 3.8 C 72 % -0.77 C
212 28-02-2016 18:40:00 3.8 C 73 % -0.58 C
213 28-02-2016 18:45:00 3.6 C 74 % -0.59 C
214 28-02-2016 18:50:00 3.5 C 74 % -0.69 C
215 28-02-2016 18:55:00 3.4 C 75 % -0.6 C
216 28-02-2016 19:00:00 3.5 C 72 % -1.06 C
217 28-02-2016 19:05:00 3.8 C 70 % -1.16 C
218 28-02-2016 19:10:00 4.1 C 68 % -1.26 C
219 28-02-2016 19:15:00 4.3 C 69 % -0.87 C
220 28-02-2016 19:20:00 4.2 C 68 % -1.17 C
221 28-02-2016 19:25:00 4.1 C 70 % -0.87 C
222 28-02-2016 19:30:00 3.9 C 71 % -0.87 C
223 28-02-2016 19:35:00 3.6 C 73 % -0.78 C
224 28-02-2016 19:40:00 3.3 C 75 % -0.7 C
225 28-02-2016 19:45:00 3.1 C 75 % -0.89 C
Sensor: Nr:Datum:Temp:Feuchte:Taupunkt:
Aussen-T/F 226 28-02-2016 19:50:00 2.8 C 76 % -1 C
227 28-02-2016 19:55:00 2.7 C 78 % -0.74 C
228 28-02-2016 20:00:00 2.6 C 78 % -0.84 C
229 28-02-2016 20:05:00 2.4 C 79 % -0.86 C
230 28-02-2016 20:10:00 2.3 C 79 % -0.96 C
231 28-02-2016 20:15:00 2.2 C 79 % -1.05 C
232 28-02-2016 20:20:00 2.2 C 80 % -0.88 C
233 28-02-2016 20:25:00 2.1 C 80 % -0.98 C
234 28-02-2016 20:30:00 2.1 C 80 % -0.98 C
235 28-02-2016 20:35:00 2.1 C 80 % -0.98 C
236 28-02-2016 20:40:00 2.1 C 80 % -0.98 C
237 28-02-2016 20:45:00 2.1 C 80 % -0.98 C
238 28-02-2016 20:50:00 2.1 C 80 % -0.98 C
239 28-02-2016 20:55:00 2.1 C 79 % -1.15 C
240 28-02-2016 21:00:00 2 C 80 % -1.08 C
241 28-02-2016 21:05:00 1.9 C 80 % -1.18 C
242 28-02-2016 21:10:00 1.9 C 80 % -1.18 C
243 28-02-2016 21:15:00 1.9 C 79 % -1.35 C
244 28-02-2016 21:20:00 1.9 C 79 % -1.35 C
245 28-02-2016 21:25:00 1.9 C 79 % -1.35 C
246 28-02-2016 21:30:00 1.8 C 79 % -1.44 C
247 28-02-2016 21:35:00 1.8 C 80 % -1.27 C
248 28-02-2016 21:40:00 1.7 C 81 % -1.2 C
249 28-02-2016 21:45:00 1.6 C 80 % -1.47 C
250 28-02-2016 21:50:00 1.6 C 81 % -1.3 C
Sensor: Nr:Datum:Temp:Feuchte:Taupunkt:
Aussen-T/F 251 28-02-2016 21:55:00 1.6 C 81 % -1.3 C
252 28-02-2016 22:00:00 1.6 C 81 % -1.3 C
253 28-02-2016 22:05:00 1.7 C 81 % -1.2 C
254 28-02-2016 22:10:00 1.7 C 81 % -1.2 C
255 28-02-2016 22:15:00 1.7 C 81 % -1.2 C
256 28-02-2016 22:20:00 1.7 C 81 % -1.2 C
257 28-02-2016 22:25:00 1.7 C 81 % -1.2 C
258 28-02-2016 22:30:00 1.7 C 81 % -1.2 C
259 28-02-2016 22:35:00 1.6 C 81 % -1.3 C
260 28-02-2016 22:40:00 1.6 C 82 % -1.13 C
261 28-02-2016 22:45:00 1.4 C 83 % -1.16 C
262 28-02-2016 22:50:00 1.3 C 83 % -1.26 C
263 28-02-2016 22:55:00 1.3 C 83 % -1.26 C
264 28-02-2016 23:00:00 1.3 C 83 % -1.26 C
265 28-02-2016 23:05:00 1.3 C 83 % -1.26 C
266 28-02-2016 23:10:00 1.3 C 83 % -1.26 C
267 28-02-2016 23:15:00 1.4 C 82 % -1.33 C
268 28-02-2016 23:20:00 1.4 C 82 % -1.33 C
269 28-02-2016 23:25:00 1.4 C 83 % -1.16 C
270 28-02-2016 23:30:00 1.4 C 82 % -1.33 C
271 28-02-2016 23:35:00 1.4 C 82 % -1.33 C
272 28-02-2016 23:40:00 1.4 C 82 % -1.33 C
273 28-02-2016 23:45:00 1.4 C 82 % -1.33 C
274 28-02-2016 23:50:00 1.4 C 82 % -1.33 C
275 28-02-2016 23:55:00 1.5 C 82 % -1.23 C

Legende:
   Min
   Max


Maximal/Minimal-Werte vom 28.02.2016 - 28.02.2016

Sensor Min Max Avg
Temp
(Aussen-T/F)
-1.7 °C
28-02-2016  06:10:00
7.1 °C
28-02-2016  14:50:00
2.13 °C
Feuchte
(Aussen-T/F)
56 %
28-02-2016  14:35:00
91 %
28-02-2016  03:10:00
77.41 %
Taupunkt
(Aussen-T/F)
-3.17 C
28-02-2016  06:05:00
-0.2 C
28-02-2016  12:10:00
-1.63 C

Die Daten stammen von einer Davis Vantage Pro 2 Wetter-Station und werden unter Linux mit der Software wview2wettercgi und aufbereitet. Alle Angaben erfolgen ohne Gewähr für ihre Vollständigkeit oder Richtigkeit.
Kontakt: Rainer Krienke krienke@uni-koblenz.de . Meine Webseiten an der Uni Koblenz oder privat.
Version: $Revision: 0.78 $